Time;durP1;ratioP1;P1;durP2;ratioP2;P2;SDS_P1;SDS_P2;PMS_P1;PMS_P2;Temp;Humidity;BMP_temperature;BMP_pressure;BME280_temperature;BME280_humidity;BME280_pressure;Samples;Min_cycle;Max_cycle;Signal;HPM_P1;HPM_P2
2021/06/21 00:00:21;;;;;;;3.70;2.33;;;;;;;;;;5031684;28;20061;-81
2021/06/21 00:02:46;;;;;;;5.22;2.45;;;;;;;;;;5015610;28;20025;-80
2021/06/21 00:05:13;;;;;;;3.83;2.20;;;;;;;;;;5015660;28;20034;-80
2021/06/21 00:07:38;;;;;;;4.47;2.28;;;;;;;;;;5015742;28;20025;-80
2021/06/21 00:10:05;;;;;;;5.13;2.28;;;;;;;;;;5013371;28;20072;-80
2021/06/21 00:12:30;;;;;;;4.07;2.25;;;;;;;;;;5014743;28;20124;-80
2021/06/21 00:14:56;;;;;;;4.18;2.25;;;;;;;;;;5014856;28;20395;-80
2021/06/21 00:17:22;;;;;;;3.05;1.73;;;;;;;;;;4999577;28;20396;-80
2021/06/21 00:19:48;;;;;;;3.60;2.03;;;;;;;;;;5012244;28;20036;-80
2021/06/21 00:22:14;;;;;;;4.78;2.30;;;;;;;;;;4996670;28;20026;-81
2021/06/21 00:24:41;;;;;;;3.00;1.73;;;;;;;;;;5011892;28;20046;-81
2021/06/21 00:27:06;;;;;;;3.03;1.85;;;;;;;;;;5029247;28;20033;-80
2021/06/21 00:29:32;;;;;;;3.33;1.90;;;;;;;;;;5010267;28;20468;-81
2021/06/21 00:31:57;;;;;;;3.33;1.85;;;;;;;;;;5015108;28;20112;-81
2021/06/21 00:34:23;;;;;;;3.65;1.90;;;;;;;;;;5014772;28;20037;-81
2021/06/21 00:36:48;;;;;;;4.75;2.05;;;;;;;;;;5014793;28;20022;-81
2021/06/21 00:39:14;;;;;;;2.90;1.63;;;;;;;;;;5030284;28;20045;-80
2021/06/21 00:41:39;;;;;;;3.60;1.73;;;;;;;;;;5002944;28;20031;-81
2021/06/21 00:44:06;;;;;;;4.05;1.70;;;;;;;;;;5000939;28;20052;-81
2021/06/21 00:46:32;;;;;;;3.45;1.80;;;;;;;;;;5014222;28;20029;-81
2021/06/21 00:48:57;;;;;;;4.53;1.92;;;;;;;;;;5011629;28;20037;-82
2021/06/21 00:51:23;;;;;;;4.22;1.65;;;;;;;;;;5011657;28;20037;-81
2021/06/21 00:53:48;;;;;;;3.42;1.80;;;;;;;;;;4997027;28;20052;-81
2021/06/21 00:56:15;;;;;;;2.55;1.67;;;;;;;;;;4998799;28;20123;-80
2021/06/21 00:58:40;;;;;;;3.42;1.80;;;;;;;;;;4998015;28;20042;-80
2021/06/21 01:01:06;;;;;;;3.53;1.73;;;;;;;;;;4998279;28;20061;-81
2021/06/21 01:03:31;;;;;;;2.90;1.50;;;;;;;;;;5015126;28;20064;-80
2021/06/21 01:05:57;;;;;;;2.90;1.70;;;;;;;;;;4998490;28;20388;-80
2021/06/21 01:08:23;;;;;;;3.22;1.40;;;;;;;;;;4998467;28;20425;-80
2021/06/21 01:10:49;;;;;;;2.38;1.50;;;;;;;;;;4997587;28;20065;-80
2021/06/21 01:13:39;;;;;;;3.28;1.65;;;;;;;;;;5030049;28;20042;-80
2021/06/21 01:16:16;;;;;;;4.30;1.55;;;;;;;;;;5027228;28;20128;-79
2021/06/21 01:19:11;;;;;;;3.15;1.52;;;;;;;;;;5014498;28;20773;-79
2021/06/21 01:22:01;;;;;;;2.70;0.98;;;;;;;;;;5008893;28;20377;-79
2021/06/21 01:24:38;;;;;;;2.45;1.48;;;;;;;;;;5027403;28;20033;-79
2021/06/21 01:27:18;;;;;;;2.10;1.20;;;;;;;;;;5028007;28;20415;-79
2021/06/21 01:29:53;;;;;;;3.30;1.23;;;;;;;;;;5016037;28;20084;-78
2021/06/21 01:32:36;;;;;;;2.30;1.70;;;;;;;;;;5030194;28;20108;-78
2021/06/21 01:35:02;;;;;;;2.20;1.23;;;;;;;;;;5025050;28;20040;-78
2021/06/21 01:37:28;;;;;;;2.45;1.20;;;;;;;;;;4990823;28;20399;-78
2021/06/21 01:39:55;;;;;;;3.60;1.55;;;;;;;;;;5014830;28;20387;-78
2021/06/21 01:42:21;;;;;;;2.38;1.25;;;;;;;;;;5011478;28;20096;-78
2021/06/21 01:44:57;;;;;;;2.30;1.27;;;;;;;;;;5026803;28;20127;-78
2021/06/21 01:47:23;;;;;;;2.35;1.13;;;;;;;;;;5035732;28;20384;-78
2021/06/21 01:49:49;;;;;;;2.42;1.20;;;;;;;;;;4997611;28;20040;-78
2021/06/21 01:52:14;;;;;;;2.33;1.10;;;;;;;;;;5030749;28;20049;-78
2021/06/21 01:54:44;;;;;;;2.45;0.93;;;;;;;;;;4997524;28;20488;-78
2021/06/21 01:57:09;;;;;;;1.77;1.00;;;;;;;;;;4998158;28;20387;-78
2021/06/21 01:59:35;;;;;;;2.53;1.20;;;;;;;;;;5013303;28;20048;-79
2021/06/21 02:02:00;;;;;;;1.55;1.05;;;;;;;;;;5013454;28;20130;-79
2021/06/21 02:04:27;;;;;;;3.67;1.48;;;;;;;;;;5013741;28;20039;-79
2021/06/21 02:06:52;;;;;;;4.00;1.67;;;;;;;;;;4996973;28;20030;-79
2021/06/21 02:09:22;;;;;;;2.58;1.00;;;;;;;;;;5030587;28;20557;-78
2021/06/21 02:11:47;;;;;;;2.55;1.60;;;;;;;;;;5013455;28;20534;-79
2021/06/21 02:14:13;;;;;;;2.65;1.38;;;;;;;;;;5013545;28;20046;-78
2021/06/21 02:16:38;;;;;;;2.78;1.40;;;;;;;;;;5016796;28;20030;-79
2021/06/21 02:19:04;;;;;;;2.88;1.33;;;;;;;;;;5011746;28;20041;-78
2021/06/21 02:21:29;;;;;;;2.95;1.10;;;;;;;;;;4997980;28;20388;-78
2021/06/21 02:23:55;;;;;;;2.47;1.40;;;;;;;;;;5014282;28;20037;-78
2021/06/21 02:26:23;;;;;;;2.60;1.13;;;;;;;;;;5014125;28;20088;-78
2021/06/21 02:28:48;;;;;;;3.85;1.13;;;;;;;;;;5021841;28;20056;-78
2021/06/21 02:31:14;;;;;;;1.98;1.08;;;;;;;;;;5033641;28;20484;-78
2021/06/21 02:33:39;;;;;;;2.92;1.30;;;;;;;;;;5001369;28;20068;-78
2021/06/21 02:36:05;;;;;;;1.88;0.95;;;;;;;;;;5001176;28;20060;-78
2021/06/21 02:38:30;;;;;;;2.10;1.15;;;;;;;;;;5034087;28;20037;-78
2021/06/21 02:40:56;;;;;;;2.03;1.30;;;;;;;;;;5001145;28;20040;-78
2021/06/21 02:43:21;;;;;;;1.73;1.02;;;;;;;;;;5000875;28;20120;-78
2021/06/21 02:45:47;;;;;;;3.58;1.15;;;;;;;;;;5017374;28;20033;-78
2021/06/21 02:48:13;;;;;;;2.03;1.40;;;;;;;;;;5016623;28;20029;-78
2021/06/21 02:50:42;;;;;;;2.63;1.00;;;;;;;;;;4998319;28;20041;-78
2021/06/21 02:53:32;;;;;;;2.05;1.20;;;;;;;;;;5001113;28;20021;-78
2021/06/21 02:56:24;;;;;;;1.90;1.08;;;;;;;;;;5016970;28;20041;-78
2021/06/21 02:58:50;;;;;;;1.90;1.05;;;;;;;;;;5018750;28;20491;-78
2021/06/21 03:01:16;;;;;;;2.20;1.40;;;;;;;;;;5033440;28;20042;-78
2021/06/21 03:03:49;;;;;;;2.10;1.50;;;;;;;;;;5032998;28;20111;-78
2021/06/21 03:06:15;;;;;;;2.42;1.02;;;;;;;;;;5016789;28;20029;-78
2021/06/21 03:08:40;;;;;;;1.83;0.90;;;;;;;;;;5015372;28;20034;-79
2021/06/21 03:11:06;;;;;;;2.30;1.00;;;;;;;;;;5018408;28;20029;-77
2021/06/21 03:13:32;;;;;;;2.67;1.40;;;;;;;;;;5016437;28;20041;-78
2021/06/21 03:15:58;;;;;;;2.38;1.20;;;;;;;;;;5033088;28;20048;-78
2021/06/21 03:18:24;;;;;;;2.60;1.08;;;;;;;;;;5032617;28;20112;-78
2021/06/21 03:20:53;;;;;;;3.10;1.30;;;;;;;;;;4999619;28;20117;-78
2021/06/21 03:23:22;;;;;;;1.75;1.30;;;;;;;;;;5016672;28;20357;-78
2021/06/21 03:25:50;;;;;;;2.50;1.30;;;;;;;;;;5000279;28;20494;-78
2021/06/21 03:28:15;;;;;;;1.50;1.00;;;;;;;;;;4998964;28;20029;-78
2021/06/21 03:30:47;;;;;;;1.95;0.98;;;;;;;;;;5015911;28;20046;-77
2021/06/21 03:33:13;;;;;;;2.70;1.35;;;;;;;;;;5000527;28;20029;-78
2021/06/21 03:35:39;;;;;;;2.35;1.20;;;;;;;;;;5016281;28;20052;-78
2021/06/21 03:38:11;;;;;;;1.33;0.90;;;;;;;;;;5000230;28;20479;-78
2021/06/21 03:40:37;;;;;;;2.50;1.17;;;;;;;;;;5016602;28;20037;-78
2021/06/21 03:43:02;;;;;;;1.40;0.90;;;;;;;;;;4999665;28;20041;-78
2021/06/21 03:45:28;;;;;;;2.17;1.20;;;;;;;;;;5015938;28;20033;-78
2021/06/21 03:47:53;;;;;;;1.45;0.90;;;;;;;;;;5032301;28;20064;-78
2021/06/21 03:50:19;;;;;;;1.95;0.90;;;;;;;;;;4996407;28;20041;-78
2021/06/21 03:52:44;;;;;;;1.73;0.95;;;;;;;;;;5024586;28;20037;-78
2021/06/21 03:55:11;;;;;;;1.67;0.88;;;;;;;;;;5027222;28;20068;-78
2021/06/21 03:57:41;;;;;;;3.17;1.00;;;;;;;;;;5012716;28;20104;-77
2021/06/21 04:00:09;;;;;;;2.15;1.35;;;;;;;;;;5012126;28;20049;-78
2021/06/21 04:02:34;;;;;;;1.20;0.98;;;;;;;;;;5028770;28;20021;-78
2021/06/21 04:05:00;;;;;;;2.97;1.15;;;;;;;;;;5010907;28;20145;-78
2021/06/21 04:07:25;;;;;;;1.50;1.10;;;;;;;;;;5012442;28;20087;-78
2021/06/21 04:09:51;;;;;;;1.77;1.27;;;;;;;;;;5012489;28;20399;-78
2021/06/21 04:12:17;;;;;;;1.48;1.00;;;;;;;;;;5012189;28;20032;-79
2021/06/21 04:14:42;;;;;;;2.15;1.13;;;;;;;;;;5020028;28;20061;-80
2021/06/21 04:17:08;;;;;;;1.80;1.08;;;;;;;;;;5000803;28;20029;-81
2021/06/21 04:19:34;;;;;;;3.03;1.02;;;;;;;;;;5014855;28;20033;-80
2021/06/21 04:22:01;;;;;;;1.67;1.00;;;;;;;;;;5031416;28;20033;-81
2021/06/21 04:24:26;;;;;;;2.28;1.15;;;;;;;;;;5013681;28;20041;-81
2021/06/21 04:26:52;;;;;;;2.05;0.90;;;;;;;;;;5015394;28;20112;-80
2021/06/21 04:29:17;;;;;;;2.38;1.27;;;;;;;;;;5014940;28;20088;-81
2021/06/21 04:31:43;;;;;;;1.60;1.20;;;;;;;;;;5031792;28;20063;-81
2021/06/21 04:34:08;;;;;;;3.13;0.95;;;;;;;;;;5031784;28;20038;-81
2021/06/21 04:36:34;;;;;;;1.63;1.10;;;;;;;;;;5031118;28;20031;-81
2021/06/21 04:38:59;;;;;;;2.33;1.38;;;;;;;;;;5009122;28;20038;-81
2021/06/21 04:41:25;;;;;;;2.05;1.00;;;;;;;;;;5014896;28;20518;-80
2021/06/21 04:43:50;;;;;;;1.75;1.08;;;;;;;;;;4998190;28;20335;-81
2021/06/21 04:46:16;;;;;;;1.73;0.95;;;;;;;;;;5014948;28;20360;-80
2021/06/21 04:48:43;;;;;;;1.92;0.85;;;;;;;;;;5004038;28;20037;-80
2021/06/21 04:51:08;;;;;;;1.80;0.80;;;;;;;;;;5014929;28;20052;-80
2021/06/21 04:53:34;;;;;;;1.98;1.17;;;;;;;;;;4998753;28;20467;-80
2021/06/21 04:55:59;;;;;;;1.73;0.93;;;;;;;;;;5031521;28;20082;-80
2021/06/21 04:58:26;;;;;;;1.17;0.70;;;;;;;;;;5005186;28;20280;-78
2021/06/21 05:00:51;;;;;;;1.55;0.90;;;;;;;;;;4992242;28;20426;-79
2021/06/21 05:03:17;;;;;;;4.75;1.30;;;;;;;;;;5025483;28;20041;-79
2021/06/21 05:05:42;;;;;;;2.13;0.80;;;;;;;;;;5010569;28;20030;-79
2021/06/21 05:08:08;;;;;;;2.35;1.05;;;;;;;;;;5011583;28;20468;-80
2021/06/21 05:10:33;;;;;;;1.10;0.70;;;;;;;;;;5014060;28;20025;-80
2021/06/21 05:12:59;;;;;;;2.05;0.70;;;;;;;;;;5015040;28;20095;-81
2021/06/21 05:15:24;;;;;;;3.45;1.00;;;;;;;;;;4997716;28;20021;-80
2021/06/21 05:17:50;;;;;;;3.00;0.93;;;;;;;;;;4997975;28;20941;-80
2021/06/21 05:20:15;;;;;;;1.95;1.00;;;;;;;;;;4998056;28;20045;-80
2021/06/21 05:22:41;;;;;;;2.33;0.85;;;;;;;;;;4996879;28;20045;-80
2021/06/21 05:25:07;;;;;;;2.30;0.75;;;;;;;;;;5013509;28;20116;-82
2021/06/21 05:27:32;;;;;;;4.15;0.60;;;;;;;;;;5014055;28;20033;-82
2021/06/21 05:29:58;;;;;;;1.02;0.50;;;;;;;;;;5029085;28;20498;-82
2021/06/21 05:32:24;;;;;;;2.67;0.90;;;;;;;;;;4995521;28;20036;-82
2021/06/21 05:34:49;;;;;;;1.10;0.70;;;;;;;;;;5012500;28;20029;-82
2021/06/21 05:37:15;;;;;;;5.45;0.57;;;;;;;;;;4997935;28;20534;-82
2021/06/21 05:39:40;;;;;;;1.85;0.70;;;;;;;;;;4997947;28;20041;-81
2021/06/21 05:42:06;;;;;;;2.20;0.80;;;;;;;;;;4997894;28;20032;-82
2021/06/21 05:44:32;;;;;;;1.50;0.50;;;;;;;;;;4997545;28;20041;-81
2021/06/21 05:46:57;;;;;;;1.92;0.70;;;;;;;;;;5030423;28;20748;-81
2021/06/21 05:49:28;;;;;;;1.38;0.47;;;;;;;;;;5046791;28;20041;-91
2021/06/21 05:51:54;;;;;;;1.10;0.68;;;;;;;;;;4992231;28;20025;-83
2021/06/21 05:54:19;;;;;;;1.55;0.70;;;;;;;;;;5013500;28;20403;-84
2021/06/21 05:56:46;;;;;;;2.55;0.80;;;;;;;;;;4979434;28;20117;-84
2021/06/21 05:59:11;;;;;;;1.10;0.50;;;;;;;;;;5019450;28;20045;-84
2021/06/21 06:01:37;;;;;;;0.90;0.40;;;;;;;;;;5023453;28;20087;-83
2021/06/21 06:04:02;;;;;;;1.70;0.30;;;;;;;;;;5010457;28;20042;-85
2021/06/21 06:06:28;;;;;;;0.98;0.30;;;;;;;;;;5010938;28;20029;-83
2021/06/21 06:08:53;;;;;;;2.92;0.50;;;;;;;;;;5028296;28;20048;-83
2021/06/21 06:11:19;;;;;;;1.77;0.55;;;;;;;;;;5010756;28;20396;-81
2021/06/21 06:13:44;;;;;;;2.35;0.40;;;;;;;;;;4996302;28;20113;-81
2021/06/21 06:16:10;;;;;;;0.80;0.30;;;;;;;;;;5017887;28;20037;-81
2021/06/21 06:18:36;;;;;;;1.00;0.22;;;;;;;;;;5008853;28;20096;-81
2021/06/21 06:21:01;;;;;;;2.35;0.40;;;;;;;;;;4993464;28;20042;-81
2021/06/21 06:23:27;;;;;;;1.25;0.40;;;;;;;;;;4993707;28;20030;-79
2021/06/21 06:25:52;;;;;;;1.15;0.38;;;;;;;;;;5037903;28;20033;-81
2021/06/21 06:28:18;;;;;;;1.77;0.63;;;;;;;;;;5002129;28;20049;-80
2021/06/21 06:30:43;;;;;;;2.67;0.45;;;;;;;;;;5008791;28;20036;-80
2021/06/21 06:33:09;;;;;;;3.58;0.43;;;;;;;;;;4993534;28;20030;-81
2021/06/21 06:35:34;;;;;;;0.93;0.35;;;;;;;;;;5026644;28;20484;-80
2021/06/21 06:38:00;;;;;;;1.15;0.30;;;;;;;;;;5025545;28;20033;-80
2021/06/21 06:40:25;;;;;;;2.83;0.30;;;;;;;;;;4996439;28;20033;-80
2021/06/21 06:42:54;;;;;;;0.77;0.30;;;;;;;;;;5009793;28;20045;-80
2021/06/21 06:45:20;;;;;;;1.05;0.20;;;;;;;;;;4993812;28;20084;-81
2021/06/21 06:47:46;;;;;;;0.47;0.10;;;;;;;;;;5019463;28;20034;-80
2021/06/21 06:50:11;;;;;;;0.65;0.20;;;;;;;;;;4996948;28;20057;-81
2021/06/21 06:52:37;;;;;;;2.85;0.30;;;;;;;;;;4996743;28;20034;-81
2021/06/21 06:57:35;;;;;;;1.80;0.30;;;;;;;;;;5029299;28;20395;-81
2021/06/21 07:00:01;;;;;;;1.48;0.10;;;;;;;;;;5016001;28;20034;-81
2021/06/21 07:02:26;;;;;;;1.05;0.28;;;;;;;;;;5025689;28;20030;-81
2021/06/21 07:04:52;;;;;;;1.20;0.30;;;;;;;;;;4997485;28;20065;-82
2021/06/21 07:07:20;;;;;;;1.15;0.30;;;;;;;;;;5004369;28;20117;-81
2021/06/21 07:09:46;;;;;;;2.25;0.20;;;;;;;;;;5032541;28;20057;-81
2021/06/21 07:12:12;;;;;;;6.90;5.13;;;;;;;;;;5035150;28;20480;-81
2021/06/21 07:14:37;;;;;;;44.83;35.30;;;;;;;;;;5032983;28;20032;-81
2021/06/21 07:17:03;;;;;;;86.95;57.88;;;;;;;;;;5032567;28;20025;-81
2021/06/21 07:19:29;;;;;;;33.17;24.58;;;;;;;;;;4999929;28;20091;-82
2021/06/21 07:21:54;;;;;;;15.93;11.00;;;;;;;;;;5015063;28;20032;-80
2021/06/21 07:24:20;;;;;;;8.05;4.40;;;;;;;;;;5022424;28;20034;-80
2021/06/21 07:26:46;;;;;;;4.22;2.45;;;;;;;;;;4995145;28;20048;-80
2021/06/21 07:29:12;;;;;;;2.90;1.08;;;;;;;;;;5007972;28;20052;-80
2021/06/21 07:31:37;;;;;;;1.70;0.60;;;;;;;;;;4999331;28;20033;-80
2021/06/21 07:34:03;;;;;;;1.25;0.40;;;;;;;;;;5015835;28;20059;-80
2021/06/21 07:36:29;;;;;;;1.52;0.30;;;;;;;;;;4999982;28;20029;-80
2021/06/21 07:38:55;;;;;;;2.15;0.43;;;;;;;;;;5015765;28;20558;-80
2021/06/21 07:41:20;;;;;;;1.00;0.22;;;;;;;;;;5015884;28;20103;-80
2021/06/21 07:43:46;;;;;;;1.65;0.20;;;;;;;;;;5012078;28;20133;-80
2021/06/21 07:46:11;;;;;;;2.45;0.22;;;;;;;;;;4995914;28;20030;-80
2021/06/21 07:48:40;;;;;;;2.33;0.20;;;;;;;;;;5016347;28;20521;-79
2021/06/21 07:51:09;;;;;;;3.95;0.20;;;;;;;;;;5012182;28;20103;-79
2021/06/21 07:53:35;;;;;;;1.75;0.25;;;;;;;;;;5010773;28;20083;-79
2021/06/21 07:56:01;;;;;;;1.48;0.30;;;;;;;;;;4999534;28;20029;-79
2021/06/21 07:58:27;;;;;;;2.28;0.40;;;;;;;;;;4998765;28;20481;-79
2021/06/21 08:00:52;;;;;;;1.17;0.32;;;;;;;;;;5015139;28;20061;-79
2021/06/21 08:03:18;;;;;;;1.50;0.20;;;;;;;;;;5015410;28;20479;-79
2021/06/21 08:05:48;;;;;;;54.15;45.15;;;;;;;;;;4999386;28;20100;-79
2021/06/21 08:08:13;;;;;;;48.55;39.08;;;;;;;;;;5000610;28;20026;-81
2021/06/21 08:10:41;;;;;;;43.78;34.05;;;;;;;;;;4998953;28;20442;-80
2021/06/21 08:13:07;;;;;;;12.88;9.30;;;;;;;;;;5011990;28;20492;-80
2021/06/21 08:15:32;;;;;;;5.50;3.83;;;;;;;;;;5010773;28;20033;-81
2021/06/21 08:17:58;;;;;;;3.70;1.33;;;;;;;;;;5012121;28;20411;-80
2021/06/21 08:20:23;;;;;;;1.98;0.90;;;;;;;;;;5013236;28;20092;-80
2021/06/21 08:22:49;;;;;;;10.45;8.25;;;;;;;;;;4998296;28;20029;-81
2021/06/21 08:25:14;;;;;;;8.05;5.28;;;;;;;;;;4996970;28;20033;-80
2021/06/21 08:27:40;;;;;;;7.03;2.15;;;;;;;;;;4998751;28;20791;-79
2021/06/21 08:30:06;;;;;;;1.30;0.57;;;;;;;;;;5014243;28;20087;-81
2021/06/21 08:32:32;;;;;;;2.75;0.50;;;;;;;;;;5015356;28;20091;-80
2021/06/21 08:34:57;;;;;;;13.93;5.03;;;;;;;;;;5013710;28;20034;-80
2021/06/21 08:37:24;;;;;;;9.02;1.40;;;;;;;;;;5014184;28;20045;-80
2021/06/21 08:39:50;;;;;;;2.42;0.90;;;;;;;;;;4998903;28;20056;-80
2021/06/21 08:42:17;;;;;;;3.60;0.70;;;;;;;;;;4995564;28;20061;-80
2021/06/21 08:44:42;;;;;;;2.15;0.68;;;;;;;;;;5011501;28;20034;-79
2021/06/21 08:47:11;;;;;;;2.92;0.85;;;;;;;;;;4995049;28;20061;-80
2021/06/21 08:49:38;;;;;;;3.13;0.40;;;;;;;;;;5038690;28;20095;-79
2021/06/21 08:52:04;;;;;;;0.40;0.30;;;;;;;;;;5024317;28;20041;-79
2021/06/21 08:54:30;;;;;;;14.00;11.40;;;;;;;;;;5031317;28;20025;-79
2021/06/21 08:56:57;;;;;;;16.77;11.15;;;;;;;;;;5014200;28;20104;-80
2021/06/21 08:59:23;;;;;;;11.68;8.30;;;;;;;;;;5002726;28;20041;-79
2021/06/21 09:01:48;;;;;;;9.80;4.72;;;;;;;;;;5024076;28;20037;-79
2021/06/21 09:04:14;;;;;;;20.27;13.52;;;;;;;;;;4997500;28;20034;-79
2021/06/21 09:06:40;;;;;;;10.30;6.18;;;;;;;;;;5037834;28;20033;-80
2021/06/21 09:09:06;;;;;;;2.90;1.40;;;;;;;;;;5014091;28;20033;-80
2021/06/21 09:11:47;;;;;;;1.05;0.50;;;;;;;;;;5000393;28;20038;-79
2021/06/21 09:14:24;;;;;;;1.40;0.50;;;;;;;;;;5030342;28;20033;-80
2021/06/21 09:16:55;;;;;;;0.40;0.25;;;;;;;;;;5028919;28;20033;-79
2021/06/21 09:19:20;;;;;;;0.63;0.20;;;;;;;;;;4998189;28;20047;-80
2021/06/21 09:21:46;;;;;;;0.60;0.20;;;;;;;;;;5014667;28;20037;-80
2021/06/21 09:24:19;;;;;;;0.73;0.30;;;;;;;;;;5030506;28;20038;-80
2021/06/21 09:26:46;;;;;;;0.50;0.20;;;;;;;;;;5030273;28;20112;-80
2021/06/21 09:29:12;;;;;;;0.40;0.25;;;;;;;;;;5013948;28;20134;-80
2021/06/21 09:31:56;;;;;;;0.55;0.25;;;;;;;;;;5007768;28;20116;-80
2021/06/21 09:34:23;;;;;;;0.77;0.30;;;;;;;;;;5010657;28;20065;-80
2021/06/21 09:36:49;;;;;;;0.93;0.52;;;;;;;;;;5028370;28;20060;-80
2021/06/21 09:39:25;;;;;;;1.33;0.50;;;;;;;;;;5030781;28;20057;-80
2021/06/21 09:42:09;;;;;;;1.00;0.80;;;;;;;;;;5030411;28;20409;-80
2021/06/21 09:44:41;;;;;;;1.30;0.70;;;;;;;;;;5030094;28;20041;-80
2021/06/21 09:47:12;;;;;;;2.13;0.82;;;;;;;;;;5013185;28;20037;-81
2021/06/21 09:49:37;;;;;;;1.48;0.80;;;;;;;;;;4994476;28;20030;-80
2021/06/21 09:52:03;;;;;;;0.85;0.57;;;;;;;;;;5014801;28;20120;-81
2021/06/21 09:54:32;;;;;;;1.20;0.82;;;;;;;;;;5013465;28;20056;-80
2021/06/21 09:56:58;;;;;;;1.80;1.05;;;;;;;;;;4996692;28;20056;-80
2021/06/21 09:59:34;;;;;;;2.05;1.25;;;;;;;;;;5001113;28;20046;-84
2021/06/21 10:02:06;;;;;;;2.50;1.45;;;;;;;;;;5014323;28;20030;-86
2021/06/21 10:04:32;;;;;;;1.50;1.40;;;;;;;;;;5039841;28;20529;-87
2021/06/21 10:06:58;;;;;;;2.15;1.95;;;;;;;;;;4997654;28;20136;-87
2021/06/21 10:09:25;;;;;;;4.40;2.22;;;;;;;;;;4998748;28;20100;-87
2021/06/21 10:11:52;;;;;;;2.50;1.73;;;;;;;;;;4981955;28;20034;-87
2021/06/21 10:14:19;;;;;;;2.10;1.83;;;;;;;;;;4994668;28;20045;-86
2021/06/21 10:16:46;;;;;;;1.23;1.13;;;;;;;;;;4993798;28;20034;-81
2021/06/21 10:19:12;;;;;;;2.30;1.50;;;;;;;;;;5015459;28;20048;-80
2021/06/21 10:21:43;;;;;;;2.78;1.77;;;;;;;;;;5028061;28;20438;-80
2021/06/21 10:24:08;;;;;;;1.35;1.17;;;;;;;;;;5012806;28;20030;-80
2021/06/21 10:26:35;;;;;;;2.28;1.70;;;;;;;;;;5018032;28;20083;-80
2021/06/21 10:29:00;;;;;;;2.65;1.30;;;;;;;;;;5013471;28;20298;-80
2021/06/21 10:31:27;;;;;;;1.60;1.33;;;;;;;;;;5013105;28;20383;-80
2021/06/21 10:33:59;;;;;;;2.10;1.27;;;;;;;;;;5013072;28;20079;-80
2021/06/21 10:36:40;;;;;;;;;;;;;;;;;;5014157;28;20029;-79
2021/06/21 10:39:19;;;;;;;1.20;1.00;;;;;;;;;;5015806;28;19909;-80
2021/06/21 10:42:10;;;;;;;2.40;1.15;;;;;;;;;;5033169;28;20040;-79
2021/06/21 10:44:42;;;;;;;1.90;1.13;;;;;;;;;;5033285;28;20064;-80
2021/06/21 10:47:36;;;;;;;1.58;1.13;;;;;;;;;;5017796;28;20131;-80
2021/06/21 10:50:08;;;;;;;2.10;1.30;;;;;;;;;;5033750;28;20037;-80
2021/06/21 10:52:37;;;;;;;2.78;1.40;;;;;;;;;;5018093;28;20037;-80
2021/06/21 10:55:35;;;;;;;1.63;1.40;;;;;;;;;;5017014;28;20075;-80
2021/06/21 10:58:05;;;;;;;1.77;1.40;;;;;;;;;;5012423;28;20037;-80
2021/06/21 11:00:42;;;;;;;1.90;1.70;;;;;;;;;;5017253;28;20430;-80
2021/06/21 11:03:29;;;;;;;2.30;1.77;;;;;;;;;;5031810;28;20096;-81
2021/06/21 11:06:20;;;;;;;2.30;1.88;;;;;;;;;;5030991;28;20034;-81
2021/06/21 11:08:46;;;;;;;2.20;2.00;;;;;;;;;;5013181;28;20415;-80
2021/06/21 11:11:44;;;;;;;2.50;1.77;;;;;;;;;;5014070;28;20037;-80
2021/06/21 11:14:10;;;;;;;2.22;1.75;;;;;;;;;;5031633;28;20029;-80
2021/06/21 11:16:41;;;;;;;2.72;1.88;;;;;;;;;;5032902;28;20120;-80
2021/06/21 11:19:13;;;;;;;1.95;1.70;;;;;;;;;;5028246;28;20507;-80
2021/06/21 11:21:55;;;;;;;1.88;1.42;;;;;;;;;;5029817;28;20034;-80
2021/06/21 11:24:35;;;;;;;2.47;1.80;;;;;;;;;;5012249;28;20026;-80
2021/06/21 11:27:18;;;;;;;3.63;1.70;;;;;;;;;;5029304;28;20033;-80
2021/06/21 11:29:48;;;;;;;6.22;2.08;;;;;;;;;;5015806;28;20487;-81
2021/06/21 11:32:14;;;;;;;3.58;2.00;;;;;;;;;;4996564;28;20549;-80
2021/06/21 11:34:44;;;;;;;2.03;1.80;;;;;;;;;;5007723;28;20029;-80
2021/06/21 11:37:38;;;;;;;2.40;2.05;;;;;;;;;;4996520;28;20021;-80
2021/06/21 11:40:16;;;;;;;2.05;1.80;;;;;;;;;;5016596;28;20034;-80
2021/06/21 11:42:42;;;;;;;2.17;1.90;;;;;;;;;;5047105;28;20042;-80
2021/06/21 11:45:08;;;;;;;2.45;2.15;;;;;;;;;;4998917;28;20116;-80
2021/06/21 11:47:35;;;;;;;2.92;2.50;;;;;;;;;;5016173;28;20040;-80
2021/06/21 11:50:12;;;;;;;3.05;2.75;;;;;;;;;;5014543;28;20045;-80
2021/06/21 11:52:37;;;;;;;3.55;3.25;;;;;;;;;;5046358;28;20044;-80
2021/06/21 11:55:15;;;;;;;4.07;3.67;;;;;;;;;;5015751;28;20037;-80
2021/06/21 11:57:41;;;;;;;4.35;3.75;;;;;;;;;;5001210;28;20458;-81
2021/06/21 12:00:08;;;;;;;4.63;4.18;;;;;;;;;;4995730;28;20044;-81
2021/06/21 12:02:34;;;;;;;4.30;4.00;;;;;;;;;;5012660;28;20482;-81
2021/06/21 12:05:09;;;;;;;5.60;5.13;;;;;;;;;;5012801;28;20040;-79
2021/06/21 12:07:42;;;;;;;5.78;5.22;;;;;;;;;;5027341;28;20033;-80
2021/06/21 12:10:10;;;;;;;6.53;6.00;;;;;;;;;;5026708;28;20030;-80
2021/06/21 12:12:39;;;;;;;5.88;5.38;;;;;;;;;;4998809;28;20368;-80
2021/06/21 12:15:06;;;;;;;6.82;6.22;;;;;;;;;;5014788;28;20037;-80
2021/06/21 12:17:31;;;;;;;6.05;5.55;;;;;;;;;;5027051;28;20073;-80
2021/06/21 12:20:09;;;;;;;5.57;4.90;;;;;;;;;;5031518;28;20057;-80
2021/06/21 12:22:35;;;;;;;4.85;4.45;;;;;;;;;;4998375;28;20538;-80
2021/06/21 12:25:01;;;;;;;4.47;4.07;;;;;;;;;;5031209;28;20037;-80
2021/06/21 12:27:26;;;;;;;4.95;4.50;;;;;;;;;;4996658;28;20111;-81
2021/06/21 12:29:52;;;;;;;4.75;4.35;;;;;;;;;;5028918;28;20042;-81
2021/06/21 12:32:18;;;;;;;4.47;4.07;;;;;;;;;;5015365;28;20440;-80
2021/06/21 12:34:47;;;;;;;5.43;4.80;;;;;;;;;;5031438;28;20044;-81
2021/06/21 12:37:22;;;;;;;4.50;4.10;;;;;;;;;;4998967;28;20081;-80
2021/06/21 12:39:53;;;;;;;4.95;4.47;;;;;;;;;;5031744;28;20033;-81
2021/06/21 12:42:19;;;;;;;3.38;2.95;;;;;;;;;;5014366;28;20037;-81
2021/06/21 12:44:46;;;;;;;2.80;2.40;;;;;;;;;;4998134;28;20056;-81
2021/06/21 12:47:27;;;;;;;2.55;1.80;;;;;;;;;;5014907;28;20029;-80
2021/06/21 12:50:01;;;;;;;3.05;2.50;;;;;;;;;;5015366;28;20387;-79
2021/06/21 12:52:27;;;;;;;3.55;2.65;;;;;;;;;;5015714;28;20512;-81
2021/06/21 12:55:04;;;;;;;4.90;2.45;;;;;;;;;;5010370;28;20038;-82
2021/06/21 12:57:47;;;;;;;3.15;2.17;;;;;;;;;;5014990;28;20029;-82
2021/06/21 13:00:13;;;;;;;4.35;2.00;;;;;;;;;;5014777;28;20111;-82
2021/06/21 13:02:39;;;;;;;2.40;2.20;;;;;;;;;;5031425;28;20029;-81
2021/06/21 13:05:07;;;;;;;2.17;1.90;;;;;;;;;;5012053;28;20104;-82
2021/06/21 13:07:32;;;;;;;3.88;2.13;;;;;;;;;;5014698;28;20038;-82
2021/06/21 13:09:58;;;;;;;2.20;1.95;;;;;;;;;;5014844;28;20032;-82
2021/06/21 13:12:31;;;;;;;2.10;1.60;;;;;;;;;;5014530;28;20472;-83
2021/06/21 13:15:06;;;;;;;2.33;1.95;;;;;;;;;;4998297;28;20048;-83
2021/06/21 13:17:32;;;;;;;2.28;1.65;;;;;;;;;;5030682;28;20115;-82
2021/06/21 13:20:05;;;;;;;3.40;1.30;;;;;;;;;;4997996;28;20021;-82
2021/06/21 13:22:38;;;;;;;1.75;1.50;;;;;;;;;;5014979;28;20492;-83
2021/06/21 13:25:14;;;;;;;1.83;1.27;;;;;;;;;;5014022;28;20091;-79
2021/06/21 13:28:00;;;;;;;1.90;1.40;;;;;;;;;;5025756;28;20472;-81
2021/06/21 13:30:39;;;;;;;2.05;1.38;;;;;;;;;;5021719;28;20035;-81
2021/06/21 13:33:11;;;;;;;2.05;1.30;;;;;;;;;;5030769;28;20052;-81
2021/06/21 13:35:44;;;;;;;1.83;1.08;;;;;;;;;;5046494;28;20047;-80
2021/06/21 13:38:16;;;;;;;2.17;1.20;;;;;;;;;;5041054;28;20033;-80
2021/06/21 13:40:42;;;;;;;1.60;1.10;;;;;;;;;;5013937;28;20061;-80
2021/06/21 13:43:09;;;;;;;2.72;1.20;;;;;;;;;;5009809;28;20068;-80
2021/06/21 13:45:41;;;;;;;3.08;1.58;;;;;;;;;;5044113;28;20068;-79
2021/06/21 13:48:11;;;;;;;2.63;1.60;;;;;;;;;;5013306;28;20061;-79
2021/06/21 13:50:38;;;;;;;2.30;1.80;;;;;;;;;;5028941;28;20061;-79
2021/06/21 13:53:05;;;;;;;1.55;1.30;;;;;;;;;;5013941;28;20037;-79
2021/06/21 13:55:42;;;;;;;2.00;1.80;;;;;;;;;;5013224;28;20052;-79
2021/06/21 13:58:07;;;;;;;2.35;1.70;;;;;;;;;;5010312;28;20036;-79
2021/06/21 14:00:38;;;;;;;2.42;1.50;;;;;;;;;;4996175;28;20491;-80
2021/06/21 14:03:21;;;;;;;1.63;1.37;;;;;;;;;;5013298;28;20036;-79
2021/06/21 14:05:47;;;;;;;3.47;1.40;;;;;;;;;;4997715;28;20056;-80
2021/06/21 14:08:13;;;;;;;2.53;1.40;;;;;;;;;;4997499;28;20030;-80
2021/06/21 14:10:39;;;;;;;3.35;1.58;;;;;;;;;;5013608;28;20033;-80
2021/06/21 14:13:04;;;;;;;2.67;1.20;;;;;;;;;;4995724;28;20041;-79
2021/06/21 14:15:30;;;;;;;2.05;1.30;;;;;;;;;;5017177;28;20033;-80
2021/06/21 14:17:55;;;;;;;1.83;1.20;;;;;;;;;;5017479;28;20100;-79
2021/06/21 14:20:21;;;;;;;2.65;1.10;;;;;;;;;;5016581;28;20037;-79
2021/06/21 14:22:46;;;;;;;2.38;1.08;;;;;;;;;;5017549;28;20056;-80
2021/06/21 14:25:12;;;;;;;1.55;1.00;;;;;;;;;;5001034;28;20037;-81
2021/06/21 14:27:37;;;;;;;1.98;1.02;;;;;;;;;;5000921;28;20025;-81
2021/06/21 14:30:03;;;;;;;3.33;1.85;;;;;;;;;;4999862;28;20025;-81
2021/06/21 14:32:29;;;;;;;2.88;1.73;;;;;;;;;;4996390;28;20092;-81
2021/06/21 14:34:55;;;;;;;2.60;1.90;;;;;;;;;;5004945;28;20034;-77
2021/06/21 14:37:20;;;;;;;2.25;1.52;;;;;;;;;;5014254;28;20026;-78
2021/06/21 14:39:46;;;;;;;2.30;1.23;;;;;;;;;;5034239;28;20041;-78
2021/06/21 14:42:11;;;;;;;3.90;2.53;;;;;;;;;;5025139;28;20380;-78
2021/06/21 14:44:37;;;;;;;4.55;1.98;;;;;;;;;;5038318;28;20060;-79
2021/06/21 14:47:02;;;;;;;5.13;1.38;;;;;;;;;;5015871;28;20236;-78
2021/06/21 14:49:28;;;;;;;2.70;1.42;;;;;;;;;;5000662;28;20041;-78
2021/06/21 14:51:53;;;;;;;2.83;1.67;;;;;;;;;;5024319;28;20446;-79